createdAt,value
2019-05-26T00:00:20.816Z,98470.19
2019-05-26T00:02:50.449Z,98462.78
2019-05-26T00:05:20.096Z,98468.41
2019-05-26T00:07:49.731Z,98469.19
2019-05-26T00:10:19.495Z,98469.72
2019-05-26T00:12:49.227Z,98469.52
2019-05-26T00:15:19.367Z,98470.00
2019-05-26T00:17:49.022Z,98473.59
2019-05-26T00:20:18.651Z,98470.42
2019-05-26T00:22:48.299Z,98465.34
2019-05-26T00:25:18.263Z,98459.74
2019-05-26T00:27:47.925Z,98460.56
2019-05-26T00:30:18.121Z,98465.16
2019-05-26T00:32:47.826Z,98461.61
2019-05-26T00:35:17.794Z,98456.19
2019-05-26T00:37:49.636Z,98450.33
2019-05-26T00:40:19.426Z,98448.38
2019-05-26T00:42:49.037Z,98446.84
2019-05-26T00:45:19.033Z,98450.33
2019-05-26T00:47:48.722Z,98448.69
2019-05-26T00:50:19.015Z,98440.59
2019-05-26T00:52:48.790Z,98442.32
2019-05-26T00:55:18.831Z,98443.10
2019-05-26T00:57:48.481Z,98447.11
2019-05-26T01:00:40.858Z,98440.35
2019-05-26T01:03:12.324Z,98439.92
2019-05-26T01:05:42.460Z,98427.65
2019-05-26T01:08:12.513Z,98426.02
2019-05-26T01:10:42.212Z,98430.75
2019-05-26T01:13:11.867Z,98430.64
2019-05-26T01:15:41.978Z,98425.09
2019-05-26T01:18:11.626Z,98429.68
2019-05-26T01:20:41.252Z,98427.86
2019-05-26T01:23:10.955Z,98430.77
2019-05-26T01:25:40.558Z,98431.53
2019-05-26T01:28:10.180Z,98433.16
2019-05-26T01:30:40.577Z,98430.97
2019-05-26T01:33:32.084Z,98439.28
2019-05-26T01:36:02.320Z,98435.53
2019-05-26T01:38:33.257Z,98436.62
2019-05-26T01:41:02.915Z,98436.62
2019-05-26T01:43:32.623Z,98443.86
2019-05-26T01:46:02.272Z,98444.12
2019-05-26T01:48:31.905Z,98441.37
2019-05-26T01:51:01.627Z,98446.26
2019-05-26T01:53:31.261Z,98447.02
2019-05-26T01:56:00.922Z,98450.20
2019-05-26T01:58:30.558Z,98451.02
2019-05-26T02:01:00.203Z,98448.07
2019-05-26T02:03:29.834Z,98455.84
2019-05-26T02:05:59.489Z,98449.39
2019-05-26T02:08:38.715Z,98453.16
2019-05-26T02:11:00.516Z,98448.07
2019-05-26T02:13:30.152Z,98448.69
2019-05-26T02:15:59.778Z,98444.88
2019-05-26T02:18:29.433Z,98441.42
2019-05-26T02:20:59.067Z,98451.02
2019-05-26T02:23:28.730Z,98443.97
2019-05-26T02:25:58.356Z,98444.97
2019-05-26T02:28:28.017Z,98451.42
2019-05-26T02:30:57.647Z,98452.22
2019-05-26T02:33:27.298Z,98444.22
2019-05-26T02:35:56.927Z,98454.72
2019-05-26T02:38:27.050Z,98444.80
2019-05-26T02:40:56.820Z,98450.47
2019-05-26T02:43:26.559Z,98453.48
2019-05-26T02:45:56.532Z,98452.40
2019-05-26T02:48:26.229Z,98448.39
2019-05-26T02:50:55.958Z,98450.82
2019-05-26T02:53:25.593Z,98451.89
2019-05-26T02:55:55.321Z,98453.72
2019-05-26T02:58:25.089Z,98459.88
2019-05-26T03:00:54.814Z,98459.31
2019-05-26T03:03:24.981Z,98459.57
2019-05-26T03:05:56.242Z,98460.08
2019-05-26T03:08:28.585Z,98457.12
2019-05-26T03:11:01.529Z,98457.08
2019-05-26T03:13:35.866Z,98454.66
2019-05-26T03:16:05.662Z,98457.09
2019-05-26T03:18:38.646Z,98460.81
2019-05-26T03:21:08.409Z,98453.82
2019-05-26T03:23:41.109Z,98452.70
2019-05-26T03:26:12.648Z,98452.45
2019-05-26T03:28:42.271Z,98460.03
2019-05-26T03:31:11.907Z,98464.52
2019-05-26T03:33:41.556Z,98460.68
2019-05-26T03:36:11.191Z,98460.27
2019-05-26T03:38:40.843Z,98461.77
2019-05-26T03:41:10.476Z,98458.20
2019-05-26T03:43:40.131Z,98463.14
2019-05-26T03:46:22.383Z,98459.44
2019-05-26T03:48:52.118Z,98466.37
2019-05-26T03:51:21.808Z,98468.75
2019-05-26T03:53:51.474Z,98468.78
2019-05-26T03:56:21.100Z,98464.47
2019-05-26T03:58:50.739Z,98460.27
2019-05-26T04:01:20.398Z,98466.31
2019-05-26T04:03:50.029Z,98466.70
2019-05-26T04:06:19.685Z,98468.67
2019-05-26T04:08:49.332Z,98469.44
2019-05-26T04:11:18.962Z,98467.61
2019-05-26T04:13:48.596Z,98472.78
2019-05-26T04:16:18.250Z,98466.08
2019-05-26T04:18:47.882Z,98462.66
2019-05-26T04:21:17.549Z,98461.66
2019-05-26T04:23:47.180Z,98465.17
2019-05-26T04:26:16.849Z,98459.22
2019-05-26T04:28:46.526Z,98467.06
2019-05-26T04:31:16.270Z,98467.20
2019-05-26T04:33:46.079Z,98468.05
2019-05-26T04:36:15.703Z,98468.27
2019-05-26T04:38:45.419Z,98469.36
2019-05-26T04:41:15.066Z,98462.86
2019-05-26T04:43:44.728Z,98468.70
2019-05-26T04:46:14.348Z,98475.54
2019-05-26T04:48:44.005Z,98469.63
2019-05-26T04:51:13.642Z,98469.55
2019-05-26T04:53:43.293Z,98472.22
2019-05-26T04:56:12.925Z,98472.85
2019-05-26T04:58:42.573Z,98473.56
2019-05-26T05:01:12.211Z,98474.41
2019-05-26T05:03:41.842Z,98477.03
2019-05-26T05:06:11.488Z,98479.69
2019-05-26T05:08:41.127Z,98481.60
2019-05-26T05:11:10.775Z,98487.59
2019-05-26T05:13:40.403Z,98483.52
2019-05-26T05:16:10.055Z,98487.63
2019-05-26T05:18:39.681Z,98485.77
2019-05-26T05:21:09.415Z,98482.36
2019-05-26T05:23:39.059Z,98484.06
2019-05-26T05:26:09.037Z,98485.25
2019-05-26T05:28:38.662Z,98491.23
2019-05-26T05:31:08.296Z,98489.74
2019-05-26T05:33:37.949Z,98488.38
2019-05-26T05:36:07.576Z,98490.02
2019-05-26T05:38:37.230Z,98492.99
2019-05-26T05:41:06.926Z,98492.17
2019-05-26T05:43:36.576Z,98489.02
2019-05-26T05:46:06.205Z,98490.86
2019-05-26T05:48:35.886Z,98487.94
2019-05-26T05:51:05.799Z,98490.06
2019-05-26T05:53:35.449Z,98494.97
2019-05-26T05:56:05.183Z,98495.25
2019-05-26T05:58:34.791Z,98498.73
2019-05-26T06:01:04.510Z,98503.86
2019-05-26T06:03:34.139Z,98504.46
2019-05-26T06:06:03.785Z,98501.52
2019-05-26T06:08:33.494Z,98501.80
2019-05-26T06:11:15.929Z,98509.03
2019-05-26T06:13:34.487Z,98513.36
2019-05-26T06:16:04.315Z,98510.10
2019-05-26T06:18:33.943Z,98507.41
2019-05-26T06:21:03.687Z,98507.69
2019-05-26T06:23:36.657Z,98500.66
2019-05-26T06:26:05.042Z,98508.78
2019-05-26T06:28:34.696Z,98503.03
2019-05-26T06:31:04.562Z,98505.20
2019-05-26T06:33:34.220Z,98501.84
2019-05-26T06:36:03.922Z,98507.13
2019-05-26T06:38:33.567Z,98507.77
2019-05-26T06:41:03.194Z,98497.08
2019-05-26T06:43:32.842Z,98494.75
2019-05-26T06:46:02.475Z,98501.49
2019-05-26T06:48:32.135Z,98497.98
2019-05-26T06:51:01.828Z,98495.09
2019-05-26T06:53:31.559Z,98491.33
2019-05-26T06:56:01.207Z,98493.30
2019-05-26T06:58:30.835Z,98491.16
2019-05-26T07:01:00.569Z,98487.98
2019-05-26T07:03:30.206Z,98493.75
2019-05-26T07:05:59.838Z,98488.06
2019-05-26T07:08:29.460Z,98486.23
2019-05-26T07:10:59.297Z,98491.91
2019-05-26T07:13:28.990Z,98486.88
2019-05-26T07:15:58.612Z,98490.09
2019-05-26T07:18:28.525Z,98497.44
2019-05-26T07:20:58.149Z,98484.28
2019-05-26T07:23:27.795Z,98482.91
2019-05-26T07:25:57.420Z,98488.83
2019-05-26T07:28:27.068Z,98495.09
2019-05-26T07:30:56.703Z,98484.06
2019-05-26T07:33:26.446Z,98483.52
2019-05-26T07:35:56.126Z,98478.17
2019-05-26T07:38:25.806Z,98484.09
2019-05-26T07:40:55.426Z,98476.83
2019-05-26T07:43:27.994Z,98478.48
2019-05-26T07:45:56.426Z,98474.45
2019-05-26T07:48:26.049Z,98477.42
2019-05-26T07:50:55.699Z,98480.66
2019-05-26T07:53:25.335Z,98469.90
2019-05-26T07:55:54.976Z,98466.67
2019-05-26T07:58:24.740Z,98464.27
2019-05-26T08:00:54.457Z,98467.74
2019-05-26T08:03:24.084Z,98470.72
2019-05-26T08:05:53.729Z,98465.36
2019-05-26T08:08:23.351Z,98468.05
2019-05-26T08:10:52.998Z,98465.91
2019-05-26T08:13:22.622Z,98464.83
2019-05-26T08:15:52.374Z,98460.54
2019-05-26T08:18:22.021Z,98461.59
2019-05-26T08:20:51.683Z,98463.73
2019-05-26T08:23:21.438Z,98460.23
2019-05-26T08:25:51.212Z,98454.55
2019-05-26T08:28:20.999Z,98453.47
2019-05-26T08:30:50.760Z,98455.63
2019-05-26T08:33:20.439Z,98452.09
2019-05-26T08:35:50.069Z,98449.17
2019-05-26T08:38:19.712Z,98448.61
2019-05-26T08:40:49.339Z,98445.14
2019-05-26T08:43:18.998Z,98445.09
2019-05-26T08:45:48.632Z,98440.47
2019-05-26T08:48:18.256Z,98440.41
2019-05-26T08:50:47.915Z,98434.48
2019-05-26T08:53:17.533Z,98435.28
2019-05-26T08:55:47.189Z,98434.99
2019-05-26T08:58:16.810Z,98436.85
2019-05-26T09:00:46.458Z,98441.91
2019-05-26T09:03:16.093Z,98437.25
2019-05-26T09:05:45.766Z,98434.20
2019-05-26T09:08:15.452Z,98437.16
2019-05-26T09:10:45.142Z,98437.27
2019-05-26T09:13:14.794Z,98431.09
2019-05-26T09:15:44.577Z,98425.95
2019-05-26T09:18:14.306Z,98427.62
2019-05-26T09:20:43.933Z,98425.99
2019-05-26T09:23:14.152Z,98421.19
2019-05-26T09:25:46.509Z,98416.95
2019-05-26T09:28:15.170Z,98420.28
2019-05-26T09:30:44.938Z,98419.99
2019-05-26T09:33:14.560Z,98412.55
2019-05-26T09:35:44.258Z,98410.00
2019-05-26T09:38:14.770Z,98408.11
2019-05-26T09:40:44.729Z,98406.81
2019-05-26T09:43:16.506Z,98409.73
2019-05-26T09:45:45.751Z,98399.56
2019-05-26T09:48:15.365Z,98403.23
2019-05-26T09:50:45.020Z,98397.27
2019-05-26T09:53:14.649Z,98402.03
2019-05-26T09:55:44.305Z,98388.05
2019-05-26T09:58:13.932Z,98390.14
2019-05-26T10:00:44.550Z,98385.24
2019-05-26T10:03:14.442Z,98389.16
2019-05-26T10:05:44.091Z,98386.36
2019-05-26T10:08:13.720Z,98384.63
2019-05-26T10:10:43.362Z,98378.59
2019-05-26T10:13:12.987Z,98384.59
2019-05-26T10:15:42.607Z,98382.27
2019-05-26T10:18:12.258Z,98381.19
2019-05-26T10:20:41.941Z,98367.77
2019-05-26T10:23:11.590Z,98364.55
2019-05-26T10:25:41.287Z,98362.19
2019-05-26T10:28:10.994Z,98366.12
2019-05-26T10:30:40.623Z,98367.09
2019-05-26T10:33:10.280Z,98358.80
2019-05-26T10:35:39.908Z,98356.78
2019-05-26T10:38:09.558Z,98347.72
2019-05-26T10:40:39.187Z,98350.88
2019-05-26T10:43:08.806Z,98352.69
2019-05-26T10:45:38.453Z,98346.72
2019-05-26T10:48:08.077Z,98343.73
2019-05-26T10:50:37.725Z,98340.31
2019-05-26T10:53:09.835Z,98338.73
2019-05-26T10:55:38.717Z,98338.01
2019-05-26T10:58:08.339Z,98331.72
2019-05-26T11:00:37.991Z,98334.34
2019-05-26T11:03:07.620Z,98328.08
2019-05-26T11:05:37.262Z,98325.72
2019-05-26T11:08:06.951Z,98323.91
2019-05-26T11:10:36.951Z,98326.92
2019-05-26T11:13:06.569Z,98321.61
2019-05-26T11:15:36.260Z,98318.17
2019-05-26T11:18:06.147Z,98312.20
2019-05-26T11:20:35.871Z,98312.98
2019-05-26T11:23:05.646Z,98308.41
2019-05-26T11:25:35.351Z,98299.17
2019-05-26T11:28:05.627Z,98295.26
2019-05-26T11:30:35.487Z,98295.08
2019-05-26T11:33:05.396Z,98289.41
2019-05-26T11:35:35.037Z,98278.70
2019-05-26T11:38:05.106Z,98277.91
2019-05-26T11:40:34.739Z,98276.50
2019-05-26T11:43:16.184Z,98275.69
2019-05-26T11:45:35.814Z,98275.66
2019-05-26T11:48:05.726Z,98267.42
2019-05-26T11:50:35.338Z,98262.76
2019-05-26T11:53:05.094Z,98263.39
2019-05-26T11:55:34.731Z,98260.25
2019-05-26T11:58:04.449Z,98246.22
2019-05-26T12:00:34.148Z,98253.34
2019-05-26T12:03:04.362Z,98248.23
2019-05-26T12:05:33.989Z,98251.40
2019-05-26T12:08:03.614Z,98252.14
2019-05-26T12:10:33.268Z,98244.80
2019-05-26T12:13:02.890Z,98240.56
2019-05-26T12:15:32.607Z,98228.87
2019-05-26T12:18:02.235Z,98221.27
2019-05-26T12:20:31.955Z,98220.82
2019-05-26T12:23:01.583Z,98222.03
2019-05-26T12:25:31.234Z,98218.75
2019-05-26T12:28:00.854Z,98209.86
2019-05-26T12:30:30.501Z,98207.16
2019-05-26T12:33:00.131Z,98209.89
2019-05-26T12:35:43.624Z,98203.03
2019-05-26T12:38:13.690Z,98204.33
2019-05-26T12:40:44.244Z,98190.39
2019-05-26T12:43:14.015Z,98192.33
2019-05-26T12:45:43.736Z,98192.13
2019-05-26T12:48:13.442Z,98192.73
2019-05-26T12:50:43.120Z,98195.20
2019-05-26T12:53:12.909Z,98192.33
2019-05-26T12:55:42.694Z,98189.25
2019-05-26T12:58:12.413Z,98187.48
2019-05-26T13:00:49.049Z,98180.33
2019-05-26T13:03:13.417Z,98183.75
2019-05-26T13:05:43.977Z,98177.23
2019-05-26T13:08:13.624Z,98172.60
2019-05-26T13:10:43.248Z,98180.37
2019-05-26T13:13:12.897Z,98173.95
2019-05-26T13:15:42.584Z,98167.94
2019-05-26T13:18:12.230Z,98162.59
2019-05-26T13:20:41.859Z,98158.54
2019-05-26T13:23:11.483Z,98159.84
2019-05-26T13:25:41.125Z,98154.88
2019-05-26T13:28:10.793Z,98153.44
2019-05-26T13:30:40.556Z,98165.83
2019-05-26T13:33:10.207Z,98159.63
2019-05-26T13:35:39.832Z,98164.14
2019-05-26T13:38:09.718Z,98158.84
2019-05-26T13:40:39.368Z,98160.31
2019-05-26T13:43:08.985Z,98153.03
2019-05-26T13:45:38.632Z,98156.95
2019-05-26T13:48:08.259Z,98148.73
2019-05-26T13:50:37.903Z,98149.63
2019-05-26T13:53:07.532Z,98152.48
2019-05-26T13:55:37.245Z,98143.39
2019-05-26T13:58:07.010Z,98141.22
2019-05-26T14:00:36.657Z,98134.94
2019-05-26T14:03:06.348Z,98130.85
2019-05-26T14:05:35.998Z,98140.21
2019-05-26T14:08:05.695Z,98132.59
2019-05-26T14:10:39.947Z,98137.81
2019-05-26T14:13:09.787Z,98124.28
2019-05-26T14:15:39.588Z,98125.53
2019-05-26T14:18:09.841Z,98123.89
2019-05-26T14:20:43.038Z,98123.39
2019-05-26T14:23:13.054Z,98127.48
2019-05-26T14:25:42.757Z,98124.52
2019-05-26T14:28:12.465Z,98133.23
2019-05-26T14:30:42.090Z,98132.84
2019-05-26T14:33:11.733Z,98133.08
2019-05-26T14:35:41.364Z,98130.78
2019-05-26T14:38:11.012Z,98129.80
2019-05-26T14:40:40.631Z,98130.34
2019-05-26T14:43:10.354Z,98122.41
2019-05-26T14:45:52.290Z,98130.19
2019-05-26T14:48:11.355Z,98119.52
2019-05-26T14:50:41.277Z,98126.48
2019-05-26T14:53:11.238Z,98125.09
2019-05-26T14:55:40.874Z,98126.44
2019-05-26T14:58:16.122Z,98119.08
2019-05-26T15:00:42.014Z,98123.51
2019-05-26T15:03:11.875Z,98118.24
2019-05-26T15:05:41.583Z,98122.34
2019-05-26T15:08:11.204Z,98117.73
2019-05-26T15:10:40.888Z,98112.97
2019-05-26T15:13:10.530Z,98115.66
2019-05-26T15:15:40.201Z,98117.94
2019-05-26T15:18:09.891Z,98117.50
2019-05-26T15:20:39.537Z,98117.08
2019-05-26T15:23:09.160Z,98122.05
2019-05-26T15:25:38.782Z,98112.36
2019-05-26T15:28:08.445Z,98115.41
2019-05-26T15:30:38.063Z,98117.73
2019-05-26T15:33:10.531Z,98121.20
2019-05-26T15:35:40.167Z,98121.30
2019-05-26T15:38:09.836Z,98119.78
2019-05-26T15:40:39.476Z,98114.65
2019-05-26T15:43:09.205Z,98110.92
2019-05-26T15:45:38.828Z,98110.22
2019-05-26T15:48:08.554Z,98108.55
2019-05-26T15:50:38.169Z,98102.69
2019-05-26T15:53:07.842Z,98105.69
2019-05-26T15:55:39.906Z,98098.78
2019-05-26T15:58:08.810Z,98093.17
2019-05-26T16:00:38.527Z,98088.73
2019-05-26T16:03:08.223Z,98095.20
2019-05-26T16:05:37.869Z,98085.97
2019-05-26T16:08:07.674Z,98088.42
2019-05-26T16:10:37.394Z,98076.80
2019-05-26T16:13:07.023Z,98087.79
2019-05-26T16:15:36.668Z,98086.81
2019-05-26T16:18:06.462Z,98084.16
2019-05-26T16:20:36.111Z,98086.77
2019-05-26T16:23:08.783Z,98093.21
2019-05-26T16:25:37.168Z,98093.80
2019-05-26T16:28:06.865Z,98090.27
2019-05-26T16:30:36.496Z,98087.76
2019-05-26T16:33:06.710Z,98090.52
2019-05-26T16:35:36.334Z,98089.55
2019-05-26T16:38:06.067Z,98089.69
2019-05-26T16:40:35.757Z,98088.98
2019-05-26T16:43:05.549Z,98084.23
2019-05-26T16:45:37.177Z,98084.02
2019-05-26T16:48:06.758Z,98074.48
2019-05-26T16:50:36.380Z,98080.28
2019-05-26T16:53:06.028Z,98077.91
2019-05-26T16:55:35.721Z,98078.33
2019-05-26T16:58:06.811Z,98075.36
2019-05-26T17:00:36.642Z,98071.74
2019-05-26T17:03:06.848Z,98073.84
2019-05-26T17:05:37.131Z,98077.14
2019-05-26T17:08:06.805Z,98067.13
2019-05-26T17:10:36.422Z,98063.28
2019-05-26T17:13:06.128Z,98068.42
2019-05-26T17:15:37.506Z,98066.70
2019-05-26T17:18:07.194Z,98069.97
2019-05-26T17:20:37.083Z,98065.64
2019-05-26T17:23:06.767Z,98068.36
2019-05-26T17:25:36.428Z,98059.64
2019-05-26T17:28:06.221Z,98069.50
2019-05-26T17:30:35.944Z,98056.55
2019-05-26T17:33:05.698Z,98059.91
2019-05-26T17:35:35.361Z,98062.28
2019-05-26T17:38:05.122Z,98063.81
2019-05-26T17:40:34.745Z,98062.96
2019-05-26T17:43:04.460Z,98062.38
2019-05-26T17:45:34.094Z,98060.22
2019-05-26T17:48:03.744Z,98059.33
2019-05-26T17:50:33.370Z,98064.22
2019-05-26T17:53:03.019Z,98062.38
2019-05-26T17:55:32.648Z,98066.46
2019-05-26T17:58:02.375Z,98063.02
2019-05-26T18:00:32.008Z,98059.83
2019-05-26T18:03:01.667Z,98059.11
2019-05-26T18:05:31.299Z,98062.05
2019-05-26T18:08:00.953Z,98066.38
2019-05-26T18:10:30.599Z,98065.44
2019-05-26T18:13:00.301Z,98061.44
2019-05-26T18:15:30.712Z,98064.24
2019-05-26T18:18:00.331Z,98060.88
2019-05-26T18:20:29.986Z,98055.83
2019-05-26T18:22:59.664Z,98048.73
2019-05-26T18:25:29.411Z,98051.83
2019-05-26T18:27:59.034Z,98052.25
2019-05-26T18:30:28.768Z,98059.84
2019-05-26T18:32:58.377Z,98051.27
2019-05-26T18:35:28.030Z,98050.16
2019-05-26T18:37:57.664Z,98050.80
2019-05-26T18:40:27.313Z,98048.70
2019-05-26T18:42:57.476Z,98046.06
2019-05-26T18:45:27.202Z,98056.07
2019-05-26T18:48:02.813Z,98055.72
2019-05-26T18:50:28.201Z,98056.60
2019-05-26T18:52:57.824Z,98058.26
2019-05-26T18:55:27.477Z,98054.89
2019-05-26T18:57:57.120Z,98065.50
2019-05-26T19:00:30.878Z,98064.87
2019-05-26T19:02:58.252Z,98062.61
2019-05-26T19:05:33.767Z,98065.98
2019-05-26T19:07:59.325Z,98060.38
2019-05-26T19:10:29.018Z,98055.02
2019-05-26T19:12:58.663Z,98058.69
2019-05-26T19:15:28.424Z,98064.31
2019-05-26T19:17:58.722Z,98059.28
2019-05-26T19:20:28.401Z,98066.69
2019-05-26T19:22:58.052Z,98066.52
2019-05-26T19:25:28.048Z,98070.43
2019-05-26T19:27:57.779Z,98074.39
2019-05-26T19:30:27.481Z,98074.75
2019-05-26T19:32:57.132Z,98077.94
2019-05-26T19:35:26.756Z,98083.02
2019-05-26T19:37:56.489Z,98089.54
2019-05-26T19:40:26.112Z,98082.64
2019-05-26T19:42:55.740Z,98088.75
2019-05-26T19:45:25.385Z,98091.23
2019-05-26T19:47:55.089Z,98090.53
2019-05-26T19:50:24.734Z,98089.17
2019-05-26T19:52:54.361Z,98089.31
2019-05-26T19:55:24.014Z,98085.60
2019-05-26T19:57:53.670Z,98091.64
2019-05-26T20:00:24.364Z,98096.64
2019-05-26T20:02:53.988Z,98097.31
2019-05-26T20:05:23.707Z,98094.55
2019-05-26T20:07:53.331Z,98100.52
2019-05-26T20:10:24.089Z,98097.31
2019-05-26T20:12:53.712Z,98098.61
2019-05-26T20:15:23.916Z,98101.16
2019-05-26T20:17:53.538Z,98104.77
2019-05-26T20:20:23.365Z,98106.73
2019-05-26T20:22:53.017Z,98106.97
2019-05-26T20:25:22.713Z,98111.59
2019-05-26T20:27:52.355Z,98110.55
2019-05-26T20:30:23.259Z,98111.97
2019-05-26T20:32:53.359Z,98114.11
2019-05-26T20:35:23.071Z,98116.61
2019-05-26T20:37:52.714Z,98121.54
2019-05-26T20:40:22.476Z,98127.73
2019-05-26T20:42:52.130Z,98118.41
2019-05-26T20:45:21.891Z,98124.97
2019-05-26T20:47:51.638Z,98128.23
2019-05-26T20:50:29.340Z,98123.88
2019-05-26T20:52:53.623Z,98124.58
2019-05-26T20:55:23.397Z,98121.88
2019-05-26T20:57:53.020Z,98121.61
2019-05-26T21:00:23.178Z,98120.52
2019-05-26T21:02:52.799Z,98118.56
2019-05-26T21:05:22.445Z,98118.03
2019-05-26T21:07:52.442Z,98119.17
2019-05-26T21:10:22.094Z,98116.78
2019-05-26T21:12:51.789Z,98117.44
2019-05-26T21:15:21.513Z,98112.31
2019-05-26T21:17:51.140Z,98114.09
2019-05-26T21:20:20.905Z,98111.45
2019-05-26T21:22:50.818Z,98112.86
2019-05-26T21:25:20.806Z,98122.58
2019-05-26T21:27:50.454Z,98117.38
2019-05-26T21:30:20.821Z,98116.99
2019-05-26T21:32:50.468Z,98113.81
2019-05-26T21:35:20.093Z,98116.28
2019-05-26T21:37:49.751Z,98116.83
2019-05-26T21:40:19.502Z,98122.33
2019-05-26T21:42:49.156Z,98124.23
2019-05-26T21:45:18.993Z,98123.16
2019-05-26T21:47:48.649Z,98124.28
2019-05-26T21:50:18.511Z,98125.87
2019-05-26T21:52:48.162Z,98124.52
2019-05-26T21:55:17.927Z,98121.22
2019-05-26T21:57:47.611Z,98121.58
2019-05-26T22:00:21.808Z,98129.14
2019-05-26T22:02:51.578Z,98123.06
2019-05-26T22:05:21.437Z,98125.67
2019-05-26T22:07:51.057Z,98123.34
2019-05-26T22:10:20.913Z,98121.20
2019-05-26T22:12:50.540Z,98124.78
2019-05-26T22:15:20.370Z,98127.39
2019-05-26T22:17:50.000Z,98127.48
2019-05-26T22:20:20.157Z,98124.91
2019-05-26T22:22:49.777Z,98117.87
2019-05-26T22:25:19.469Z,98122.50
2019-05-26T22:27:49.071Z,98118.06
2019-05-26T22:30:19.304Z,98111.85
2019-05-26T22:32:48.949Z,98115.41
2019-05-26T22:35:18.572Z,98111.94
2019-05-26T22:37:48.222Z,98119.53
2019-05-26T22:40:18.556Z,98113.55
2019-05-26T22:42:48.210Z,98120.55
2019-05-26T22:45:18.315Z,98113.91
2019-05-26T22:47:48.028Z,98109.09
2019-05-26T22:50:17.828Z,98108.33
2019-05-26T22:52:47.516Z,98110.41
2019-05-26T22:55:17.273Z,98109.38
2019-05-26T22:57:46.932Z,98108.98
2019-05-26T23:00:18.061Z,98108.22
2019-05-26T23:02:47.849Z,98108.14
2019-05-26T23:05:17.537Z,98106.56
2019-05-26T23:07:47.166Z,98104.70
2019-05-26T23:10:18.052Z,98106.23
2019-05-26T23:12:47.673Z,98105.76
2019-05-26T23:15:18.254Z,98098.34
2019-05-26T23:17:47.930Z,98096.84
2019-05-26T23:20:18.683Z,98100.73
2019-05-26T23:22:48.310Z,98110.88
2019-05-26T23:25:18.275Z,98110.18
2019-05-26T23:27:47.895Z,98114.29
2019-05-26T23:30:18.561Z,98108.03
2019-05-26T23:32:48.184Z,98095.87
2019-05-26T23:35:17.946Z,98104.77
2019-05-26T23:37:47.591Z,98102.05
2019-05-26T23:40:17.586Z,98100.89
2019-05-26T23:42:47.300Z,98095.87
2019-05-26T23:45:17.081Z,98091.89
2019-05-26T23:47:46.740Z,98093.16
2019-05-26T23:50:16.421Z,98088.90
2019-05-26T23:52:46.064Z,98090.38
2019-05-26T23:55:15.757Z,98087.30
2019-05-26T23:57:45.407Z,98084.59
